Time;durP1;ratioP1;P1;durP2;ratioP2;P2;SDS_P1;SDS_P2;PMS_P1;PMS_P2;Temp;Humidity;BMP_temperature;BMP_pressure;BME280_temperature;BME280_humidity;BME280_pressure;Samples;Min_cycle;Max_cycle;Signal;HPM_P1;HPM_P2
2023/03/11 00:01:23;;;;;;;;;;;;;;;13.65;100.00;98757.53;5090567;28;19912;-70
2023/03/11 00:03:48;;;;;;;;;;;;;;;13.64;100.00;98743.69;5091149;28;20007;-70
2023/03/11 00:06:13;;;;;;;;;;;;;;;13.69;100.00;98741.94;5090769;28;19961;-71
2023/03/11 00:08:40;;;;;;;;;;;;;;;13.68;100.00;98729.84;5090771;28;19965;-70
2023/03/11 00:11:05;;;;;;;;;;;;;;;13.69;100.00;98723.78;5090697;28;20408;-70
2023/03/11 00:13:30;;;;;;;;;;;;;;;13.73;100.00;98728.09;5090415;28;19947;-70
2023/03/11 00:15:56;;;;;;;;;;;;;;;13.77;100.00;98728.06;5090841;28;19912;-70
2023/03/11 00:18:25;;;;;;;;;;;;;;;13.77;100.00;98716.00;5071719;28;20003;-69
2023/03/11 00:20:51;;;;;;;;;;;;;;;13.83;100.00;98709.88;5090600;28;20308;-69
2023/03/11 00:23:16;;;;;;;;;;;;;;;13.81;100.00;98699.53;5090826;28;19912;-69
2023/03/11 00:25:43;;;;;;;;;;;;;;;13.88;100.00;98679.59;5090906;28;19919;-70
2023/03/11 00:28:09;;;;;;;;;;;;;;;13.83;100.00;98696.91;5090865;28;19912;-71
2023/03/11 00:30:35;;;;;;;;;;;;;;;13.84;100.00;98725.44;5088325;28;19912;-70
2023/03/11 00:33:01;;;;;;;;;;;;;;;13.89;100.00;98734.09;5091001;28;19923;-70
2023/03/11 00:35:27;;;;;;;;;;;;;;;13.93;100.00;98739.25;5090609;28;19924;-70
2023/03/11 00:37:54;;;;;;;;;;;;;;;13.94;100.00;98746.16;5090774;28;20301;-70
2023/03/11 00:40:21;;;;;;;;;;;;;;;13.97;100.00;98746.13;5090708;28;19912;-69
2023/03/11 00:42:46;;;;;;;;;;;;;;;13.93;100.00;98736.66;5090776;28;19916;-69
2023/03/11 00:45:12;;;;;;;;;;;;;;;13.88;100.00;98732.34;5090777;28;20373;-69
2023/03/11 00:47:58;;;;;;;;;;;;;;;13.88;100.00;98718.50;5090281;28;19912;-71
2023/03/11 00:50:28;;;;;;;;;;;;;;;13.86;100.00;98728.06;5027768;28;20375;-71
2023/03/11 00:52:54;;;;;;;;;;;;;;;13.82;100.00;98719.41;5028070;28;19913;-70
2023/03/11 00:55:23;;;;;;;;;;;;;;;13.77;100.00;98722.88;5028009;28;20462;-71
2023/03/11 00:57:53;;;;;;;;;;;;;;;13.69;100.00;98717.75;5028050;28;19913;-69
2023/03/11 01:00:19;;;;;;;;;;;;;;;13.65;100.00;98713.44;5027814;28;19913;-71
2023/03/11 01:02:44;;;;;;;;;;;;;;;13.66;100.00;98709.97;5027841;28;19913;-71
2023/03/11 01:05:10;;;;;;;;;;;;;;;13.61;100.00;98704.81;5027904;28;20454;-70
2023/03/11 01:07:35;;;;;;;;;;;;;;;13.58;100.00;98700.50;5028582;28;19924;-71
2023/03/11 01:10:01;;;;;;;;;;;;;;;13.56;100.00;98683.22;5031018;28;19912;-71
2023/03/11 01:12:26;;;;;;;;;;;;;;;13.49;100.00;98676.34;5031457;28;19952;-70
2023/03/11 01:14:52;;;;;;;;;;;;;;;13.36;100.00;98670.31;5028262;28;19913;-71
2023/03/11 01:17:17;;;;;;;;;;;;;;;13.27;100.00;98659.09;5051117;28;19919;-71
2023/03/11 01:19:43;;;;;;;;;;;;;;;13.17;100.00;98660.00;5051290;28;19972;-70
2023/03/11 01:22:09;;;;;;;;;;;;;;;13.08;100.00;98653.13;5060942;28;19940;-71
2023/03/11 01:24:34;;;;;;;;;;;;;;;13.02;100.00;98647.06;5093694;28;19908;-70
2023/03/11 01:27:00;;;;;;;;;;;;;;;12.98;100.00;98638.44;5093823;28;19912;-70
2023/03/11 01:29:25;;;;;;;;;;;;;;;12.95;100.00;98631.53;5093760;28;20274;-71
2023/03/11 01:31:50;;;;;;;;;;;;;;;12.96;100.00;98635.00;5093816;28;19915;-70
2023/03/11 01:34:15;;;;;;;;;;;;;;;12.93;100.00;98635.00;5074043;28;19974;-71
2023/03/11 01:36:41;;;;;;;;;;;;;;;12.88;100.00;98637.59;5093582;28;19943;-70
2023/03/11 01:39:06;;;;;;;;;;;;;;;12.92;100.00;98639.34;5093320;28;20400;-70
2023/03/11 01:41:32;;;;;;;;;;;;;;;12.97;100.00;98620.31;5093120;28;19928;-70
2023/03/11 01:43:57;;;;;;;;;;;;;;;13.01;100.00;98602.19;5093425;28;19958;-70
2023/03/11 01:46:27;;;;;;;;;;;;;;;13.04;100.00;98602.16;5093676;28;20422;-70
2023/03/11 01:48:56;;;;;;;;;;;;;;;13.14;100.00;98595.22;5093263;28;19969;-69
2023/03/11 01:51:24;;;;;;;;;;;;;;;13.24;100.00;98589.13;5093319;28;19924;-73
2023/03/11 01:53:51;;;;;;;;;;;;;;;13.29;100.00;98590.84;5067990;28;19948;-72
2023/03/11 01:56:17;;;;;;;;;;;;;;;13.30;100.00;98593.44;5091496;28;19923;-71
2023/03/11 01:58:45;;;;;;;;;;;;;;;13.31;100.00;98595.16;5071801;28;19912;-71
2023/03/11 02:01:11;;;;;;;;;;;;;;;13.30;100.00;98585.66;5090718;28;19941;-71
2023/03/11 02:03:38;;;;;;;;;;;;;;;13.29;100.00;98602.06;5092999;28;19916;-70
2023/03/11 02:06:06;;;;;;;;;;;;;;;13.27;100.00;98598.59;5092592;28;19912;-69
2023/03/11 02:08:34;;;;;;;;;;;;;;;13.25;100.00;98611.59;5092621;28;19916;-69
2023/03/11 02:11:01;;;;;;;;;;;;;;;13.23;100.00;98609.88;5093050;28;19912;-69
2023/03/11 02:13:26;;;;;;;;;;;;;;;13.19;100.00;98590.88;5090799;28;19907;-70
2023/03/11 02:15:51;;;;;;;;;;;;;;;13.18;100.00;98577.94;5087854;28;20282;-69
2023/03/11 02:18:19;;;;;;;;;;;;;;;13.11;100.00;98583.13;5092527;28;19912;-70
2023/03/11 02:20:53;;;;;;;;;;;;;;;13.09;100.00;98584.84;5092588;28;19999;-69
2023/03/11 02:23:21;;;;;;;;;;;;;;;13.12;100.00;98596.94;5093159;28;19912;-69
2023/03/11 02:26:05;;;;;;;;;;;;;;;13.19;100.00;98613.34;5092679;28;20289;-69
2023/03/11 02:28:30;;;;;;;;;;;;;;;13.20;100.00;98613.34;5092707;28;20392;-69
2023/03/11 02:30:56;;;;;;;;;;;;;;;13.24;100.00;98611.59;5091322;28;19923;-69
2023/03/11 02:33:23;;;;;;;;;;;;;;;13.24;100.00;98609.00;5087543;28;19920;-69
2023/03/11 02:35:48;;;;;;;;;;;;;;;13.27;100.00;98608.97;5091884;28;19924;-69
2023/03/11 02:38:15;;;;;;;;;;;;;;;13.34;100.00;98608.09;5089267;28;19943;-69
2023/03/11 02:40:47;;;;;;;;;;;;;;;13.36;100.00;98606.38;5092054;28;20373;-69
2023/03/11 02:43:14;;;;;;;;;;;;;;;13.42;100.00;98603.78;5091238;28;19916;-69
2023/03/11 02:45:40;;;;;;;;;;;;;;;13.43;100.00;98605.50;5091972;28;19920;-69
2023/03/11 02:48:07;;;;;;;;;;;;;;;13.41;100.00;98596.88;5091354;28;19963;-69
2023/03/11 02:50:35;;;;;;;;;;;;;;;13.38;100.00;98603.78;5091659;28;19912;-69
2023/03/11 02:53:01;;;;;;;;;;;;;;;13.34;100.00;98576.13;5091666;28;19919;-69
2023/03/11 02:55:26;;;;;;;;;;;;;;;13.29;100.00;98572.72;5090109;28;19912;-68
2023/03/11 02:57:51;;;;;;;;;;;;;;;13.21;100.00;98567.56;5091404;28;19916;-68
2023/03/11 03:00:17;;;;;;;;;;;;;;;13.21;100.00;98571.00;5091054;28;19968;-68
2023/03/11 03:02:43;;;;;;;;;;;;;;;13.21;100.00;98565.81;5090922;28;21470;-68
2023/03/11 03:05:09;;;;;;;;;;;;;;;13.19;100.00;98557.19;5077533;28;19916;-68
2023/03/11 03:07:34;;;;;;;;;;;;;;;13.18;100.00;98552.03;5078755;28;19955;-68
2023/03/11 03:09:59;;;;;;;;;;;;;;;13.20;100.00;98566.69;5079453;28;19923;-68
2023/03/11 03:12:25;;;;;;;;;;;;;;;13.27;100.00;98562.34;5077802;28;19916;-69
2023/03/11 03:14:50;;;;;;;;;;;;;;;13.28;100.00;98558.88;5062716;28;19923;-68
2023/03/11 03:17:16;;;;;;;;;;;;;;;13.30;100.00;98554.56;5078573;28;19923;-69
2023/03/11 03:19:41;;;;;;;;;;;;;;;13.32;100.00;98550.25;5077782;28;19932;-68
2023/03/11 03:22:06;;;;;;;;;;;;;;;13.35;100.00;98560.56;5079325;28;19955;-69
2023/03/11 03:24:32;;;;;;;;;;;;;;;13.39;100.00;98551.09;5077837;28;19912;-69
2023/03/11 03:26:57;;;;;;;;;;;;;;;13.39;100.00;98548.50;5078273;28;19912;-69
2023/03/11 03:29:22;;;;;;;;;;;;;;;13.37;100.00;98545.91;5045518;28;19913;-69
2023/03/11 03:31:48;;;;;;;;;;;;;;;13.32;100.00;98547.66;5076634;28;19923;-69
2023/03/11 03:34:13;;;;;;;;;;;;;;;13.30;100.00;98557.16;5084247;28;19912;-69
2023/03/11 03:36:38;;;;;;;;;;;;;;;13.22;100.00;98538.19;5087558;28;19954;-69
2023/03/11 03:39:04;;;;;;;;;;;;;;;13.15;100.00;98544.28;5088342;28;20395;-68
2023/03/11 03:41:29;;;;;;;;;;;;;;;13.05;100.00;98551.22;5088619;28;20413;-68
2023/03/11 03:43:55;;;;;;;;;;;;;;;13.00;100.00;98553.81;5091452;28;19912;-68
2023/03/11 03:46:20;;;;;;;;;;;;;;;12.96;100.00;98549.53;5090840;28;19912;-68
2023/03/11 03:48:45;;;;;;;;;;;;;;;12.91;100.00;98538.31;5091015;28;20610;-68
2023/03/11 03:51:11;;;;;;;;;;;;;;;12.86;100.00;98538.34;5090918;28;19961;-68
2023/03/11 03:53:36;;;;;;;;;;;;;;;12.75;100.00;98533.19;5073075;28;19935;-68
2023/03/11 03:56:03;;;;;;;;;;;;;;;12.65;100.00;98528.03;5091171;28;19988;-68
2023/03/11 03:58:28;;;;;;;;;;;;;;;12.55;100.00;98517.72;5084591;28;19915;-67
2023/03/11 04:00:57;;;;;;;;;;;;;;;12.49;100.00;98517.72;5090142;28;19916;-68
2023/03/11 04:03:23;;;;;;;;;;;;;;;12.44;100.00;98514.28;5083916;28;19912;-69
2023/03/11 04:05:48;;;;;;;;;;;;;;;12.37;100.00;98516.00;5088562;28;20387;-67
2023/03/11 04:08:13;;;;;;;;;;;;;;;12.38;100.00;98512.56;5055063;28;19916;-67
2023/03/11 04:10:38;;;;;;;;;;;;;;;12.36;100.00;98509.13;5090903;28;20353;-67
2023/03/11 04:13:04;;;;;;;;;;;;;;;12.28;100.00;98506.53;5090563;28;19950;-67
2023/03/11 04:15:29;;;;;;;;;;;;;;;12.25;100.00;98496.22;5090750;28;19912;-67
2023/03/11 04:17:54;;;;;;;;;;;;;;;12.25;100.00;98487.56;5090877;28;19921;-67
2023/03/11 04:20:20;;;;;;;;;;;;;;;12.30;100.00;98478.09;5091380;28;19919;-67
2023/03/11 04:22:45;;;;;;;;;;;;;;;12.29;100.00;98478.97;5090593;28;19954;-67
2023/03/11 04:25:10;;;;;;;;;;;;;;;12.32;100.00;98484.13;5090656;28;19918;-67
2023/03/11 04:27:37;;;;;;;;;;;;;;;12.31;100.00;98482.38;5090633;28;19957;-67
2023/03/11 04:30:02;;;;;;;;;;;;;;;12.29;100.00;98476.38;5054525;28;19912;-67
2023/03/11 04:32:28;;;;;;;;;;;;;;;12.27;100.00;98470.34;5072633;28;19916;-67
2023/03/11 04:34:53;;;;;;;;;;;;;;;12.26;100.00;98460.84;5090764;28;19912;-67
2023/03/11 04:37:18;;;;;;;;;;;;;;;12.20;100.00;98463.44;5090249;28;20517;-67
2023/03/11 04:39:44;;;;;;;;;;;;;;;12.22;100.00;98464.31;5090603;28;19916;-67
2023/03/11 04:42:09;;;;;;;;;;;;;;;12.29;100.00;98466.03;5090651;28;19912;-68
2023/03/11 04:44:35;;;;;;;;;;;;;;;12.36;100.00;98469.44;5094524;28;20293;-67
2023/03/11 04:47:00;;;;;;;;;;;;;;;12.45;100.00;98478.06;5094503;28;19935;-67
2023/03/11 04:49:25;;;;;;;;;;;;;;;12.48;100.00;98469.41;5092271;28;20365;-67
2023/03/11 04:51:51;;;;;;;;;;;;;;;12.54;100.00;98474.56;5089448;28;19998;-67
2023/03/11 04:54:16;;;;;;;;;;;;;;;12.57;100.00;98466.81;5094635;28;19912;-67
2023/03/11 04:56:41;;;;;;;;;;;;;;;12.58;100.00;98462.47;5090010;28;20003;-68
2023/03/11 04:59:06;;;;;;;;;;;;;;;12.61;100.00;98459.88;5074776;28;19916;-67
2023/03/11 05:01:32;;;;;;;;;;;;;;;12.71;100.00;98465.88;5079941;28;20448;-67
2023/03/11 05:03:57;;;;;;;;;;;;;;;12.76;100.00;98467.59;5094244;28;19907;-67
2023/03/11 05:06:22;;;;;;;;;;;;;;;12.83;100.00;98477.94;5085517;28;19916;-68
2023/03/11 05:08:48;;;;;;;;;;;;;;;12.94;100.00;98482.16;5093779;28;19912;-68
2023/03/11 05:11:13;;;;;;;;;;;;;;;12.97;100.00;98491.66;5094062;28;20347;-67
2023/03/11 05:13:38;;;;;;;;;;;;;;;13.01;100.00;98487.31;5109806;28;19912;-67
2023/03/11 05:16:04;;;;;;;;;;;;;;;13.05;100.00;98487.31;5094001;28;20006;-67
2023/03/11 05:18:31;;;;;;;;;;;;;;;13.14;100.00;98483.81;5093998;28;20365;-68
2023/03/11 05:23:59;;;;;;;;;;;;;;;13.28;100.00;98491.50;5134571;22;19931;-67
2023/03/11 05:26:24;;;;;;;;;;;;;;;13.30;100.00;98494.94;5114620;28;19908;-68
2023/03/11 05:28:49;;;;;;;;;;;;;;;13.37;100.00;98507.03;5114472;28;20269;-68
2023/03/11 05:31:14;;;;;;;;;;;;;;;13.39;100.00;98510.47;5114641;28;19908;-68
2023/03/11 05:33:40;;;;;;;;;;;;;;;13.46;100.00;98507.84;5114772;28;19998;-68
2023/03/11 05:36:07;;;;;;;;;;;;;;;13.51;100.00;98506.09;5114696;28;19914;-68
2023/03/11 05:38:32;;;;;;;;;;;;;;;13.56;100.00;98517.28;5114644;28;19998;-68
2023/03/11 05:40:57;;;;;;;;;;;;;;;13.54;100.00;98519.88;5101054;28;20426;-68
2023/03/11 05:43:22;;;;;;;;;;;;;;;13.57;100.00;98519.88;5078727;28;19943;-68
2023/03/11 05:45:48;;;;;;;;;;;;;;;13.55;100.00;98526.78;5073558;28;19908;-67
2023/03/11 05:48:13;;;;;;;;;;;;;;;13.56;100.00;98520.75;5073634;28;20281;-67
2023/03/11 05:50:38;;;;;;;;;;;;;;;13.53;100.00;98536.31;5074144;28;20009;-68
2023/03/11 05:53:04;;;;;;;;;;;;;;;13.50;100.00;98535.47;5093509;28;19912;-68
2023/03/11 05:55:29;;;;;;;;;;;;;;;13.50;100.00;98544.09;5093400;28;20046;-68
2023/03/11 05:57:54;;;;;;;;;;;;;;;13.53;100.00;98540.63;5093448;28;19912;-68
2023/03/11 06:00:20;;;;;;;;;;;;;;;13.54;100.00;98547.53;5074228;28;20381;-68
2023/03/11 06:02:45;;;;;;;;;;;;;;;13.50;100.00;98549.28;5093633;28;19912;-69
2023/03/11 06:05:10;;;;;;;;;;;;;;;13.55;100.00;98557.06;5093399;28;19908;-68
2023/03/11 06:07:36;;;;;;;;;;;;;;;13.61;100.00;98559.59;5095544;28;19914;-66
2023/03/11 06:10:02;;;;;;;;;;;;;;;13.68;100.00;98565.59;5093609;28;19908;-68
2023/03/11 06:12:27;;;;;;;;;;;;;;;13.56;100.00;98569.16;5041726;28;19932;-68
2023/03/11 06:14:53;;;;;;;;;;;;;;;13.42;100.00;98567.50;5049788;28;20398;-68
2023/03/11 06:17:18;;;;;;;;;;;;;;;13.14;100.00;98566.72;5038244;28;19913;-68
2023/03/11 06:19:43;;;;;;;;;;;;;;;13.02;100.00;98569.34;5046548;28;19998;-68
2023/03/11 06:22:08;;;;;;;;;;;;;;;12.91;100.00;98572.84;5050447;28;20333;-68
2023/03/11 06:24:34;;;;;;;;;;;;;;;12.75;100.00;98572.03;5050123;28;19958;-68
2023/03/11 06:26:59;;;;;;;;;;;;;;;12.50;100.00;98572.94;5050649;28;19912;-68
2023/03/11 06:29:25;;;;;;;;;;;;;;;12.33;100.00;98552.28;5039962;28;19917;-68
2023/03/11 06:31:50;;;;;;;;;;;;;;;12.18;100.00;98558.31;5030266;28;19956;-68
2023/03/11 06:34:16;;;;;;;;;;;;;;;12.27;100.00;98545.38;5030319;28;19948;-68
2023/03/11 06:36:41;;;;;;;;;;;;;;;12.31;100.00;98541.91;5029374;28;20405;-68
2023/03/11 06:39:06;;;;;;;;;;;;;;;12.25;100.00;98537.59;5046930;28;19916;-68
2023/03/11 06:41:33;;;;;;;;;;;;;;;12.20;100.00;98534.16;5049978;28;19909;-68
2023/03/11 06:43:58;;;;;;;;;;;;;;;12.18;100.00;98516.94;5080412;28;20014;-68
2023/03/11 06:46:23;;;;;;;;;;;;;;;12.27;100.00;98507.44;5092237;28;20010;-68
2023/03/11 06:48:52;;;;;;;;;;;;;;;12.22;100.00;98491.03;5092438;28;19915;-68
2023/03/11 06:51:18;;;;;;;;;;;;;;;12.32;100.00;98478.94;5089694;28;19916;-67
2023/03/11 06:53:43;;;;;;;;;;;;;;;12.59;100.00;98469.38;5072224;28;19920;-68
2023/03/11 06:56:10;;;;;;;;;;;;;;;12.88;100.00;98458.91;5072091;28;19936;-68
2023/03/11 06:58:36;;;;;;;;;;;;;;;13.04;100.00;98457.09;5054095;28;19913;-67
2023/03/11 07:01:05;;;;;;;;;;;;;;;13.35;100.00;98451.72;5029369;28;19909;-68
2023/03/11 07:03:31;;;;;;;;;;;;;;;13.62;100.00;98448.97;5040269;28;19963;-68
2023/03/11 07:05:57;;;;;;;;;;;;;;;13.74;100.00;98444.56;5011843;28;19971;-68
2023/03/11 07:08:23;;;;;;;;;;;;;;;13.86;100.00;98448.75;4996568;28;20363;-68
2023/03/11 07:10:58;;;;;;;;;;;;;;;13.98;100.00;98440.03;5030087;28;19909;-68
2023/03/11 07:13:25;;;;;;;;;;;;;;;13.95;100.00;98457.34;5032598;28;19917;-67
2023/03/11 07:15:58;;;;;;;;;;;;;;;13.89;100.00;98469.50;5049158;28;20351;-68
2023/03/11 07:18:23;;;;;;;;;;;;;;;13.88;100.00;98469.50;5048978;28;19919;-68
2023/03/11 07:20:48;;;;;;;;;;;;;;;13.87;100.00;98480.75;5048943;28;19905;-68
2023/03/11 07:23:14;;;;;;;;;;;;;;;13.93;100.00;98470.31;5048514;28;19923;-67
2023/03/11 07:25:44;;;;;;;;;;;;;;;14.01;100.00;98471.09;5048997;28;20344;-68
2023/03/11 07:28:09;;;;;;;;;;;;;;;14.09;100.00;98473.63;5048801;28;20016;-68
2023/03/11 07:30:37;;;;;;;;;;;;;;;14.22;100.00;98474.38;5032156;28;19912;-68
2023/03/11 07:33:02;;;;;;;;;;;;;;;14.28;100.00;98463.94;5087820;28;19915;-68
2023/03/11 07:35:27;;;;;;;;;;;;;;;14.37;100.00;98463.84;5091496;28;19908;-68
2023/03/11 07:37:53;;;;;;;;;;;;;;;14.67;100.00;98464.38;5091408;28;20419;-68
2023/03/11 07:40:18;;;;;;;;;;;;;;;14.68;100.00;98465.25;5091633;28;19914;-68
2023/03/11 07:42:43;;;;;;;;;;;;;;;14.68;100.00;98476.50;5091598;28;20264;-68
2023/03/11 07:45:10;;;;;;;;;;;;;;;14.54;100.00;98487.03;5091548;28;19912;-69
2023/03/11 07:47:35;;;;;;;;;;;;;;;14.67;100.00;98508.53;5091661;28;19908;-68
2023/03/11 07:50:00;;;;;;;;;;;;;;;14.64;100.00;98515.47;5091521;28;19973;-69
2023/03/11 07:52:28;;;;;;;;;;;;;;;14.61;100.00;98513.78;5091682;28;19915;-69
2023/03/11 07:54:53;;;;;;;;;;;;;;;14.64;100.00;98525.84;5091417;28;19931;-68
2023/03/11 07:57:19;;;;;;;;;;;;;;;14.68;100.00;98536.25;5091433;28;20369;-69
2023/03/11 07:59:45;;;;;;;;;;;;;;;14.57;100.00;98536.31;5091262;28;19908;-68
2023/03/11 08:02:10;;;;;;;;;;;;;;;14.64;100.00;98539.72;5039041;28;19908;-68
2023/03/11 08:04:36;;;;;;;;;;;;;;;14.68;100.00;98543.19;5090974;28;19915;-68
2023/03/11 08:07:01;;;;;;;;;;;;;;;14.56;100.00;98539.78;5090804;28;19994;-69
2023/03/11 08:09:26;;;;;;;;;;;;;;;14.59;100.00;98528.50;5091112;28;20012;-68
2023/03/11 08:11:51;;;;;;;;;;;;;;;14.72;100.00;98519.72;5090860;28;19908;-68
2023/03/11 08:14:17;;;;;;;;;;;;;;;14.74;99.95;98521.47;5090946;28;20350;-68
2023/03/11 08:16:42;;;;;;;;;;;;;;;14.76;100.00;98530.94;5089067;28;19935;-68
2023/03/11 08:19:09;;;;;;;;;;;;;;;14.79;100.00;98520.53;5095239;28;19912;-68
2023/03/11 08:21:35;;;;;;;;;;;;;;;14.81;100.00;98517.91;5095540;28;19908;-68
2023/03/11 08:24:01;;;;;;;;;;;;;;;14.87;100.00;98518.69;5095000;28;19916;-68
2023/03/11 08:26:26;;;;;;;;;;;;;;;14.77;100.00;98524.88;5095153;28;19986;-68
2023/03/11 08:28:52;;;;;;;;;;;;;;;14.83;100.00;98524.81;5094753;28;19908;-68
2023/03/11 08:31:19;;;;;;;;;;;;;;;14.80;100.00;98527.44;5095228;28;19912;-68
2023/03/11 08:33:45;;;;;;;;;;;;;;;14.80;100.00;98524.84;5094997;28;19958;-68
2023/03/11 08:36:11;;;;;;;;;;;;;;;14.83;100.00;98514.44;5094816;28;20006;-68
2023/03/11 08:38:36;;;;;;;;;;;;;;;14.92;100.00;98521.25;5094824;28;20007;-68
2023/03/11 08:41:01;;;;;;;;;;;;;;;15.08;97.69;98521.91;5058749;28;19908;-68
2023/03/11 08:43:27;;;;;;;;;;;;;;;15.01;97.45;98521.13;5094821;28;19908;-68
2023/03/11 08:45:52;;;;;;;;;;;;;;;15.03;97.16;98508.97;5094787;28;20278;-67
2023/03/11 08:48:17;;;;;;;;;;;;;;;15.02;96.54;98507.25;5094594;28;19908;-68
2023/03/11 08:50:43;;;;;;;;;;;;;;;15.15;98.03;98497.56;5094641;28;19956;-68
2023/03/11 08:53:08;;;;;;;;;;;;;;;15.16;97.44;98508.81;5094501;28;20242;-67
2023/03/11 08:55:34;;;;;;;;;;;;;;;15.29;96.34;98494.78;5094492;28;19904;-68
2023/03/11 08:57:59;;;;;;;;;;;;;;;15.47;95.72;98498.00;5094552;28;19981;-68
2023/03/11 09:00:25;;;;;;;;;;;;;;;15.42;93.50;98482.44;5094579;28;20324;-68
2023/03/11 09:02:50;;;;;;;;;;;;;;;15.46;94.08;98483.28;5093863;28;19912;-68
2023/03/11 09:05:15;;;;;;;;;;;;;;;15.47;93.17;98472.00;5094024;28;20361;-68
2023/03/11 09:07:41;;;;;;;;;;;;;;;15.60;93.79;98468.31;5094124;28;19912;-68
2023/03/11 09:10:07;;;;;;;;;;;;;;;15.79;94.95;98457.63;5094345;28;19955;-68
2023/03/11 09:12:32;;;;;;;;;;;;;;;15.83;93.02;98448.91;5076035;28;20267;-68
2023/03/11 09:14:58;;;;;;;;;;;;;;;15.79;93.68;98447.22;5094152;28;19914;-68
2023/03/11 09:17:23;;;;;;;;;;;;;;;15.88;93.18;98447.06;5076018;28;19918;-68
2023/03/11 09:19:49;;;;;;;;;;;;;;;16.12;91.98;98445.78;5094094;28;19907;-68
2023/03/11 09:22:14;;;;;;;;;;;;;;;16.08;92.49;98444.13;5093704;28;19951;-68
2023/03/11 09:24:39;;;;;;;;;;;;;;;16.13;89.83;98436.22;5094200;28;19990;-68
2023/03/11 09:27:05;;;;;;;;;;;;;;;16.21;87.69;98449.09;5075931;28;19962;-68
2023/03/11 09:29:30;;;;;;;;;;;;;;;16.08;87.76;98438.06;5093163;28;19956;-68
2023/03/11 09:31:57;;;;;;;;;;;;;;;16.15;90.35;98432.72;5093568;28;19915;-68
2023/03/11 09:34:23;;;;;;;;;;;;;;;16.28;86.82;98437.69;5075524;28;19912;-68
2023/03/11 09:36:48;;;;;;;;;;;;;;;16.20;82.27;98432.63;5093883;28;19919;-68
2023/03/11 09:39:13;;;;;;;;;;;;;;;16.29;83.83;98435.06;5093656;28;19915;-68
2023/03/11 09:41:54;;;;;;;;;;;;;;;16.20;84.61;98424.81;5093686;28;19907;-68
2023/03/11 09:44:22;;;;;;;;;;;;;;;16.24;84.70;98438.66;5074291;28;19908;-68
2023/03/11 09:46:48;;;;;;;;;;;;;;;16.15;83.73;98418.84;5093635;28;19915;-68
2023/03/11 09:49:13;;;;;;;;;;;;;;;16.27;84.49;98415.13;5093366;28;19912;-68
2023/03/11 09:51:42;;;;;;;;;;;;;;;16.39;83.66;98419.25;5093564;28;19912;-68
2023/03/11 09:54:10;;;;;;;;;;;;;;;16.34;84.73;98408.94;5093662;28;19915;-68
2023/03/11 09:56:36;;;;;;;;;;;;;;;16.16;85.79;98412.72;5093262;28;19908;-68
2023/03/11 09:59:16;;;;;;;;;;;;;;;16.30;86.10;98400.31;5093224;28;19908;-68
2023/03/11 10:01:43;;;;;;;;;;;;;;;16.46;86.05;98402.59;5092013;28;20588;-68
2023/03/11 10:04:26;;;;;;;;;;;;;;;16.59;86.24;98403.22;5040386;28;19915;-68
2023/03/11 10:06:52;;;;;;;;;;;;;;;16.45;87.85;98398.31;5093018;28;20250;-68
2023/03/11 10:09:32;;;;;;;;;;;;;;;16.44;85.76;98400.03;5093151;28;19908;-68
2023/03/11 10:12:16;;;;;;;;;;;;;;;16.46;85.72;98397.41;5093056;28;20016;-68
2023/03/11 10:14:59;;;;;;;;;;;;;;;16.55;85.01;98393.75;5093054;28;19939;-68
2023/03/11 10:17:40;;;;;;;;;;;;;;;16.58;84.15;98391.09;5092728;28;19915;-68
2023/03/11 10:20:13;;;;;;;;;;;;;;;16.80;85.20;98391.50;5092510;28;19908;-69
2023/03/11 10:22:58;;;;;;;;;;;;;;;16.78;82.74;98390.66;5092796;28;20002;-69
2023/03/11 10:25:25;;;;;;;;;;;;;;;16.79;83.14;98394.97;5010137;28;20367;-68
2023/03/11 10:27:54;;;;;;;;;;;;;;;16.74;82.98;98402.06;5010030;28;19909;-68
2023/03/11 10:30:28;;;;;;;;;;;;;;;16.84;83.01;98387.91;5010081;28;19921;-68
2023/03/11 10:33:12;;;;;;;;;;;;;;;16.89;84.55;98388.66;5009950;28;19910;-68
2023/03/11 10:35:38;;;;;;;;;;;;;;;16.94;82.60;98392.06;5010123;28;20498;-68
2023/03/11 10:38:18;;;;;;;;;;;;;;;17.00;82.48;98398.91;4977298;28;19932;-68
2023/03/11 10:40:44;;;;;;;;;;;;;;;16.98;83.12;98383.31;5008799;28;19909;-68
2023/03/11 10:43:39;;;;;;;;;;;;;;;17.09;82.32;98392.63;4991523;28;19957;-68
2023/03/11 10:46:12;;;;;;;;;;;;;;;17.10;81.75;98384.75;4951491;29;19957;-67
2023/03/11 10:48:37;;;;;;;;;;;;;;;17.21;79.72;98394.06;4951507;28;20452;-67
2023/03/11 10:51:02;;;;;;;;;;;;;;;17.18;79.32;98389.78;4935440;29;19914;-68
2023/03/11 10:53:28;;;;;;;;;;;;;;;17.13;79.28;98391.63;4951656;29;20265;-67
2023/03/11 10:55:55;;;;;;;;;;;;;;;17.28;79.31;98383.47;4953342;28;20029;-68
2023/03/11 10:58:22;;;;;;;;;;;;;;;17.15;77.27;98392.47;5047509;28;19916;-68
2023/03/11 11:01:03;;;;;;;;;;;;;;;17.14;77.47;98377.72;5049426;28;19912;-68
2023/03/11 11:03:28;;;;;;;;;;;;;;;17.26;78.21;98374.81;5049333;28;19913;-67
2023/03/11 11:06:04;;;;;;;;;;;;;;;17.22;76.51;98388.84;5046900;28;19913;-67
2023/03/11 11:08:30;;;;;;;;;;;;;;;17.45;77.37;98372.59;5048970;28;19909;-68
2023/03/11 11:10:57;;;;;;;;;;;;;;;17.67;74.33;98376.44;5049305;28;19982;-68
2023/03/11 11:13:23;;;;;;;;;;;;;;;17.83;73.16;98364.72;5049222;28;19909;-68
2023/03/11 11:15:56;;;;;;;;;;;;;;;17.87;73.47;98361.13;5049211;28;19913;-68
2023/03/11 11:18:23;;;;;;;;;;;;;;;17.93;72.65;98360.09;5048840;28;19909;-68
2023/03/11 11:21:08;;;;;;;;;;;;;;;17.87;73.28;98357.63;5042855;28;19992;-68
2023/03/11 11:23:43;;;;;;;;;;;;;;;17.83;74.69;98354.28;5071873;28;19978;-68
2023/03/11 11:26:28;;;;;;;;;;;;;;;17.99;72.08;98354.72;5077650;28;19912;-68
2023/03/11 11:29:08;;;;;;;;;;;;;;;18.01;71.46;98346.88;5082614;28;19919;-68
2023/03/11 11:31:34;;;;;;;;;;;;;;;18.35;69.75;98349.38;5079665;28;19919;-68
2023/03/11 11:34:00;;;;;;;;;;;;;;;18.72;67.68;98334.38;5079596;28;19916;-68
2023/03/11 11:36:30;;;;;;;;;;;;;;;18.70;66.59;98341.38;5086549;28;20365;-68
2023/03/11 11:38:57;;;;;;;;;;;;;;;18.47;66.46;98336.84;5086582;28;20292;-68
2023/03/11 11:41:23;;;;;;;;;;;;;;;18.39;65.43;98331.84;5085927;28;19942;-68
2023/03/11 11:43:51;;;;;;;;;;;;;;;18.75;64.82;98335.13;5088842;28;19912;-68
2023/03/11 11:46:34;;;;;;;;;;;;;;;18.49;64.57;98322.88;5088549;28;20388;-68
2023/03/11 11:49:15;;;;;;;;;;;;;;;18.71;64.92;98327.44;5089871;28;19916;-69
2023/03/11 11:51:43;;;;;;;;;;;;;;;18.94;62.99;98320.66;5089449;28;19908;-68
2023/03/11 11:54:16;;;;;;;;;;;;;;;19.01;62.14;98333.47;5088338;28;19908;-68
2023/03/11 11:56:42;;;;;;;;;;;;;;;18.73;62.16;98334.31;5090539;28;20052;-68
2023/03/11 11:59:18;;;;;;;;;;;;;;;18.52;61.05;98338.44;5090568;28;20348;-68
2023/03/11 12:01:49;;;;;;;;;;;;;;;18.27;61.93;98331.31;5090543;28;20011;-68
2023/03/11 12:04:20;;;;;;;;;;;;;;;18.18;63.25;98323.75;5090592;28;19911;-69
2023/03/11 12:07:01;;;;;;;;;;;;;;;18.49;62.80;98324.59;5078989;28;20028;-69
2023/03/11 12:09:28;;;;;;;;;;;;;;;18.38;62.22;98328.41;5069853;28;20057;-69
2023/03/11 12:12:03;;;;;;;;;;;;;;;18.09;61.20;98343.16;5083154;28;19912;-69
2023/03/11 12:14:34;;;;;;;;;;;;;;;18.02;61.85;98343.34;5073088;28;20004;-69
2023/03/11 12:17:02;;;;;;;;;;;;;;;18.10;62.40;98344.00;5079427;28;19919;-69
2023/03/11 12:19:27;;;;;;;;;;;;;;;18.33;59.41;98329.41;5069297;28;19909;-69
2023/03/11 12:22:19;;;;;;;;;;;;;;;18.94;60.37;98323.25;5080797;28;19912;-69
2023/03/11 12:24:51;;;;;;;;;;;;;;;18.72;59.41;98323.91;5081331;28;19916;-69
2023/03/11 12:27:16;;;;;;;;;;;;;;;18.67;59.28;98331.88;5078930;28;20013;-70
2023/03/11 12:29:45;;;;;;;;;;;;;;;18.72;60.93;98303.84;5068952;28;19986;-70
2023/03/11 12:32:21;;;;;;;;;;;;;;;19.30;56.81;98325.59;5074102;28;20009;-70
2023/03/11 12:34:47;;;;;;;;;;;;;;;19.09;53.54;98335.88;5071294;28;20358;-70
2023/03/11 12:37:13;;;;;;;;;;;;;;;18.89;50.69;98331.22;5084538;28;20021;-70
2023/03/11 12:39:38;;;;;;;;;;;;;;;19.05;51.65;98335.09;5069112;28;20007;-70
2023/03/11 12:42:10;;;;;;;;;;;;;;;18.71;50.76;98340.50;5089551;28;20003;-71
2023/03/11 12:44:36;;;;;;;;;;;;;;;18.43;50.70;98344.78;5089480;28;19951;-72